Terminal Aerodrome Forecast
Issued by NWS Cleveland, OH

Home | Current Version | Previous Version | Graphics & Text | Print | Product List | Glossary On
Versions: 1 2 3 4 5 6 7 8 9 10 11 12 13 14 15 16 17 18
680
FTUS41 KCLE 251745
TAFYNG
TAF
KYNG 251745Z 2518/2618 18004KT 5SM -SHRA BR BKN005 OVC015
     FM251900 VRB04KT P6SM SCT015 OVC040
      TEMPO 2519/2523 2SM -SHRA OVC015
     FM252300 25004KT 5SM -SHRA OVC015
     FM260400 25007KT P6SM OVC006
     FM261500 28010KT P6SM OVC015=

USA.gov is the U.S. government's official web portal to all federal, state and local government web resources and services.